Capitol Logistics 7447

Operating for MZN



KRIV
March Air Reserve Base
Riverside, California
KORD
Chicago O'Hare International Airport
Chicago, Illinois

Activity Log

Date Flight Route Aircraft Duration
No Flights Yet

Route Details

Aircraft Information
Primary: Boeing 737-800BCF
Backup: Boeing 757-200SF
Route Data
Distance: 1466nm
Duration: 3h 24m
Recm'd Route: SKYES4 TRM PKE J134 CIM J96 IRK SHAIN2
Origin Wx: KRIV 180258Z AUTO 29004KT 10SM CLR 18/09 A2993 RMK AO2 SLP131 T01820090 52016
Dest. Wx: KORD 180251Z 06005KT 10SM FEW250 06/M06 A2997 RMK AO2 SLP151 T00611056 51010 $
Notes: